Time;durP1;ratioP1;P1;durP2;ratioP2;P2;SDS_P1;SDS_P2;PMS_P1;PMS_P2;Temp;Humidity;BMP_temperature;BMP_pressure;BME280_temperature;BME280_humidity;BME280_pressure;Samples;Min_cycle;Max_cycle;Signal;HPM_P1;HPM_P2
2023/10/01 00:01:34;;;;;;;10.53;10.23;;;11.00;99.90;;;;;;5066318;28;20262;-83
2023/10/01 00:04:04;;;;;;;10.50;10.20;;;10.90;99.90;;;;;;5066687;28;20257;-83
2023/10/01 00:06:34;;;;;;;10.40;10.10;;;10.90;99.90;;;;;;5066214;28;20234;-83
2023/10/01 00:09:01;;;;;;;10.50;10.20;;;10.80;99.90;;;;;;5065452;28;20223;-83
2023/10/01 00:11:28;;;;;;;10.60;10.30;;;10.80;99.90;;;;;;5065311;28;20281;-83
2023/10/01 00:13:55;;;;;;;10.60;10.30;;;10.80;99.90;;;;;;5065502;28;20249;-83
2023/10/01 00:16:23;;;;;;;10.63;10.33;;;10.70;99.90;;;;;;5067820;28;20219;-83
2023/10/01 00:18:50;;;;;;;10.50;10.20;;;10.70;99.90;;;;;;5068667;28;20338;-82
2023/10/01 00:21:17;;;;;;;10.57;10.27;;;10.60;99.90;;;;;;5069356;28;20265;-83
2023/10/01 00:23:46;;;;;;;10.50;10.20;;;10.60;99.90;;;;;;5071422;28;20303;-84
2023/10/01 00:26:13;;;;;;;10.50;10.20;;;10.60;99.90;;;;;;5070683;28;20219;-83
2023/10/01 00:28:40;;;;;;;10.60;10.30;;;10.60;99.90;;;;;;5068990;28;20239;-82
2023/10/01 00:31:07;;;;;;;10.33;10.03;;;10.50;99.90;;;;;;5068852;28;20317;-83
2023/10/01 00:33:34;;;;;;;10.40;10.10;;;10.50;99.90;;;;;;5068146;28;20241;-83
2023/10/01 00:36:02;;;;;;;10.30;10.00;;;10.50;99.90;;;;;;5068970;28;20227;-83
2023/10/01 00:38:29;;;;;;;10.50;10.20;;;10.50;99.90;;;;;;5068332;28;20231;-83
2023/10/01 00:40:58;;;;;;;10.43;10.13;;;10.50;99.90;;;;;;5067990;28;20238;-83
2023/10/01 00:43:26;;;;;;;10.30;10.00;;;10.50;99.90;;;;;;5068943;28;20249;-83
2023/10/01 00:45:53;;;;;;;10.30;10.00;;;10.50;99.90;;;;;;5068177;28;20238;-83
2023/10/01 00:48:23;;;;;;;10.47;10.17;;;10.60;99.90;;;;;;5067741;28;20239;-83
2023/10/01 00:50:51;;;;;;;10.40;10.10;;;10.50;99.90;;;;;;5071502;28;20231;-82
2023/10/01 00:53:19;;;;;;;10.40;10.10;;;10.60;99.90;;;;;;5073775;28;20230;-83
2023/10/01 00:55:48;;;;;;;10.43;10.13;;;10.60;99.90;;;;;;5072999;28;20246;-83
2023/10/01 00:58:18;;;;;;;10.30;10.00;;;10.50;99.90;;;;;;5072007;28;20224;-83
2023/10/01 01:00:45;;;;;;;10.13;9.83;;;10.50;99.90;;;;;;5072088;28;20245;-83
2023/10/01 01:03:19;;;;;;;10.33;10.03;;;10.50;99.90;;;;;;5075683;28;20254;-83
2023/10/01 01:05:57;;;;;;;10.20;9.90;;;10.50;99.90;;;;;;5079536;28;20224;-83
2023/10/01 01:08:33;;;;;;;10.30;10.00;;;10.40;99.90;;;;;;5079861;28;20237;-83
2023/10/01 01:11:01;;;;;;;10.13;9.83;;;10.40;99.90;;;;;;5079399;28;20230;-83
2023/10/01 01:13:30;;;;;;;10.40;10.10;;;10.40;99.90;;;;;;5076757;28;20329;-82
2023/10/01 01:16:00;;;;;;;10.50;10.20;;;10.40;99.90;;;;;;5073445;28;20234;-83
2023/10/01 01:18:27;;;;;;;10.30;10.00;;;10.30;99.90;;;;;;5072977;28;20239;-83
2023/10/01 01:20:58;;;;;;;10.50;10.20;;;10.30;99.90;;;;;;5072167;28;20337;-83
2023/10/01 01:23:26;;;;;;;10.50;10.20;;;10.30;99.90;;;;;;5071708;28;20235;-83
2023/10/01 01:25:54;;;;;;;10.30;10.00;;;10.30;99.90;;;;;;5071933;28;20239;-83
2023/10/01 01:28:27;;;;;;;10.43;10.13;;;10.20;99.90;;;;;;5069042;28;20242;-83
2023/10/01 01:30:55;;;;;;;10.57;10.27;;;10.20;99.90;;;;;;5071463;28;20238;-82
2023/10/01 01:33:26;;;;;;;10.67;10.37;;;10.10;99.90;;;;;;5069784;28;20318;-83
2023/10/01 01:35:54;;;;;;;10.67;10.37;;;10.10;99.90;;;;;;5069599;28;20227;-83
2023/10/01 01:38:22;;;;;;;10.47;10.17;;;10.10;99.90;;;;;;5067916;28;20229;-83
2023/10/01 01:40:52;;;;;;;10.47;10.17;;;10.10;99.90;;;;;;5067395;28;20246;-83
2023/10/01 01:43:22;;;;;;;10.80;10.50;;;10.00;99.90;;;;;;5067048;28;20257;-83
2023/10/01 01:45:54;;;;;;;10.60;10.30;;;10.00;99.90;;;;;;5067081;28;20245;-83
2023/10/01 01:48:31;;;;;;;10.73;10.43;;;10.00;99.90;;;;;;5066895;28;20233;-83
2023/10/01 01:51:00;;;;;;;10.80;10.50;;;10.00;99.90;;;;;;5067128;28;20321;-83
2023/10/01 01:53:34;;;;;;;10.70;10.40;;;9.90;99.90;;;;;;5066813;28;20245;-83
2023/10/01 01:56:08;;;;;;;10.70;10.40;;;9.80;99.90;;;;;;5066697;28;20234;-84
2023/10/01 01:58:35;;;;;;;10.70;10.40;;;9.80;99.90;;;;;;5067084;28;20282;-83
2023/10/01 02:01:19;;;;;;;10.80;10.50;;;9.80;99.90;;;;;;5066578;28;20249;-83
2023/10/01 02:03:51;;;;;;;10.83;10.53;;;9.80;99.90;;;;;;5066813;28;20703;-83
2023/10/01 02:06:26;;;;;;;10.60;10.30;;;9.80;99.90;;;;;;5066574;28;20239;-83
2023/10/01 02:08:57;;;;;;;10.60;10.30;;;9.80;99.90;;;;;;5070594;28;20270;-83
2023/10/01 02:11:26;;;;;;;10.50;10.20;;;9.80;99.90;;;;;;5067909;28;20235;-83
2023/10/01 02:13:57;;;;;;;10.50;10.20;;;9.80;99.90;;;;;;5066714;28;20294;-83
2023/10/01 02:16:40;;;;;;;10.70;10.40;;;9.80;99.90;;;;;;5066895;28;20231;-83
2023/10/01 02:19:22;;;;;;;10.67;10.37;;;9.80;99.90;;;;;;5066399;28;20249;-83
2023/10/01 02:21:57;;;;;;;10.67;10.37;;;9.80;99.90;;;;;;5066257;28;20325;-83
2023/10/01 02:24:37;;;;;;;10.80;10.50;;;9.80;99.90;;;;;;5066690;28;20238;-82
2023/10/01 02:27:06;;;;;;;10.63;10.33;;;9.80;99.90;;;;;;5066519;28;20329;-83
2023/10/01 02:29:45;;;;;;;10.50;10.20;;;9.70;99.90;;;;;;5065679;28;20258;-83
2023/10/01 02:32:14;;;;;;;10.70;10.40;;;9.80;99.90;;;;;;5066375;28;20318;-83
2023/10/01 02:34:42;;;;;;;10.70;10.40;;;9.80;99.90;;;;;;5065620;28;20238;-83
2023/10/01 02:37:10;;;;;;;10.47;10.17;;;9.80;99.90;;;;;;5066682;28;20239;-83
2023/10/01 02:39:37;;;;;;;10.60;10.30;;;9.70;99.90;;;;;;5065690;28;20226;-83
2023/10/01 02:42:21;;;;;;;10.53;10.23;;;9.70;99.90;;;;;;5065928;28;20227;-83
2023/10/01 02:44:48;;;;;;;10.67;10.37;;;9.70;99.90;;;;;;5067248;28;20233;-83
2023/10/01 02:47:20;;;;;;;10.70;10.40;;;9.70;99.90;;;;;;5069717;28;20226;-82
2023/10/01 02:49:49;;;;;;;10.63;10.33;;;9.70;99.90;;;;;;5073161;28;20292;-83
2023/10/01 02:52:18;;;;;;;10.87;10.57;;;9.70;99.90;;;;;;5071934;28;20326;-83
2023/10/01 02:54:47;;;;;;;10.70;10.40;;;9.60;99.90;;;;;;5069832;28;20278;-83
2023/10/01 02:57:24;;;;;;;10.60;10.30;;;9.60;99.90;;;;;;5069170;28;20223;-83
2023/10/01 03:00:20;;;;;;;10.83;10.53;;;9.60;99.90;;;;;;5067462;28;20321;-83
2023/10/01 03:02:53;;;;;;;10.80;10.50;;;9.50;99.90;;;;;;5066394;28;20226;-82
2023/10/01 03:05:28;;;;;;;10.73;10.43;;;9.50;99.90;;;;;;5066448;28;20235;-82
2023/10/01 03:07:56;;;;;;;10.80;10.50;;;9.50;99.90;;;;;;5066071;28;20285;-83
2023/10/01 03:10:26;;;;;;;10.80;10.50;;;9.50;99.90;;;;;;5066100;28;20285;-83
2023/10/01 03:12:56;;;;;;;11.00;10.60;;;9.40;99.90;;;;;;5064984;28;20231;-83
2023/10/01 03:15:27;;;;;;;11.00;10.60;;;9.40;99.90;;;;;;5065834;28;20223;-83
2023/10/01 03:17:58;;;;;;;10.83;10.50;;;9.30;99.90;;;;;;5065662;28;20285;-83
2023/10/01 03:23:25;;;;;;;10.70;10.40;;;9.30;99.90;;;;;;5073858;28;20222;-83
2023/10/01 03:25:58;;;;;;;11.10;10.70;;;9.20;99.90;;;;;;5080072;28;20227;-83
2023/10/01 03:28:34;;;;;;;11.10;10.70;;;9.10;99.90;;;;;;5075419;28;20230;-83
2023/10/01 03:31:08;;;;;;;10.97;10.57;;;9.10;99.90;;;;;;5064085;28;20226;-83
2023/10/01 03:33:37;;;;;;;11.03;10.63;;;9.00;99.90;;;;;;5064322;28;20238;-83
2023/10/01 03:36:09;;;;;;;11.10;10.70;;;9.00;99.90;;;;;;5064900;28;20238;-83
2023/10/01 03:38:37;;;;;;;11.20;10.80;;;9.00;99.90;;;;;;5063868;28;20346;-83
2023/10/01 03:41:08;;;;;;;10.80;10.50;;;9.00;99.90;;;;;;5064116;28;20297;-83
2023/10/01 03:43:37;;;;;;;11.10;10.70;;;9.00;99.90;;;;;;5064091;28;20261;-83
2023/10/01 03:46:25;;;;;;;11.17;10.77;;;9.00;99.90;;;;;;5064158;28;20231;-82
2023/10/01 03:48:59;;;;;;;11.03;10.63;;;9.00;99.90;;;;;;5063743;28;20272;-83
2023/10/01 03:51:52;;;;;;;10.83;10.50;;;9.00;99.90;;;;;;5063614;28;20229;-83
2023/10/01 03:54:19;;;;;;;10.90;10.50;;;9.00;99.90;;;;;;5071136;28;20294;-83
2023/10/01 03:56:56;;;;;;;11.00;10.60;;;9.00;99.90;;;;;;5067918;28;20294;-83
2023/10/01 03:59:27;;;;;;;10.77;10.47;;;9.00;99.90;;;;;;5065635;28;20231;-83
2023/10/01 04:02:02;;;;;;;11.00;10.60;;;9.00;99.90;;;;;;5065971;28;20229;-83
2023/10/01 04:04:31;;;;;;;10.70;10.40;;;9.00;99.90;;;;;;5066226;28;20231;-83
2023/10/01 04:07:09;;;;;;;10.83;10.53;;;9.00;99.90;;;;;;5065489;28;20238;-83
2023/10/01 04:09:46;;;;;;;10.70;10.40;;;9.00;99.90;;;;;;5068252;28;20246;-83
2023/10/01 04:12:27;;;;;;;10.40;10.10;;;9.00;99.90;;;;;;5069355;28;20230;-83
2023/10/01 04:15:01;;;;;;;10.70;10.40;;;9.00;99.90;;;;;;5067976;28;20284;-83
2023/10/01 04:17:29;;;;;;;10.80;10.50;;;9.00;99.90;;;;;;5067286;28;20259;-83
2023/10/01 04:20:00;;;;;;;10.70;10.40;;;9.00;99.90;;;;;;5066569;28;20327;-83
2023/10/01 04:22:29;;;;;;;10.80;10.50;;;8.90;99.90;;;;;;5066367;28;20284;-83
2023/10/01 04:25:00;;;;;;;10.67;10.37;;;8.90;99.90;;;;;;5066253;28;20232;-83
2023/10/01 04:27:30;;;;;;;10.70;10.40;;;8.90;99.90;;;;;;5065182;28;20231;-82
2023/10/01 04:30:00;;;;;;;10.53;10.23;;;8.90;99.90;;;;;;5065041;28;20219;-83
2023/10/01 04:32:28;;;;;;;10.50;10.20;;;9.00;99.90;;;;;;5065187;28;20230;-83
2023/10/01 04:34:58;;;;;;;10.50;10.20;;;8.90;99.90;;;;;;5065791;28;20257;-83
2023/10/01 04:37:37;;;;;;;10.60;10.30;;;8.90;99.90;;;;;;5065596;28;20235;-83
2023/10/01 04:40:31;;;;;;;10.60;10.30;;;8.90;99.90;;;;;;5065037;28;20245;-83
2023/10/01 04:42:56;;;;;;;10.50;10.20;;;8.90;99.90;;;;;;5064730;28;20219;-83
2023/10/01 04:45:25;;;;;;;10.60;10.30;;;8.90;99.90;;;;;;5065858;28;20255;-83
2023/10/01 04:47:55;;;;;;;10.87;10.53;;;8.90;99.90;;;;;;5065130;28;20246;-83
2023/10/01 04:50:27;;;;;;;10.47;10.17;;;8.90;99.90;;;;;;5065551;28;20257;-83
2023/10/01 04:52:59;;;;;;;10.60;10.30;;;8.90;99.90;;;;;;5064976;28;20219;-83
2023/10/01 04:55:28;;;;;;;10.80;10.50;;;8.90;99.90;;;;;;5064720;28;20246;-83
2023/10/01 04:57:56;;;;;;;10.70;10.40;;;8.90;99.90;;;;;;5064291;28;20284;-83
2023/10/01 05:00:26;;;;;;;10.73;10.43;;;8.90;99.90;;;;;;5063982;28;20250;-83
2023/10/01 05:02:54;;;;;;;10.80;10.50;;;8.90;99.90;;;;;;5066638;28;20247;-83
2023/10/01 05:05:26;;;;;;;10.80;10.50;;;9.00;99.90;;;;;;5068287;28;20230;-83
2023/10/01 05:07:57;;;;;;;10.90;10.60;;;9.00;99.90;;;;;;5068040;28;20245;-83
2023/10/01 05:10:26;;;;;;;11.17;10.77;;;8.90;99.90;;;;;;5068012;28;20262;-83
2023/10/01 05:12:58;;;;;;;11.27;10.87;;;9.00;99.90;;;;;;5067245;28;20231;-83
2023/10/01 05:15:31;;;;;;;11.17;10.77;;;8.90;99.90;;;;;;5067674;28;20237;-83
2023/10/01 05:17:59;;;;;;;11.10;10.70;;;8.90;99.90;;;;;;5068008;28;20271;-83
2023/10/01 05:20:26;;;;;;;11.00;10.60;;;8.90;99.90;;;;;;5067470;28;20290;-83
2023/10/01 05:22:54;;;;;;;10.87;10.53;;;8.90;99.90;;;;;;5067159;28;20258;-83
2023/10/01 05:25:24;;;;;;;10.80;10.50;;;8.90;99.90;;;;;;5067796;28;20230;-83
2023/10/01 05:27:54;;;;;;;10.90;10.60;;;8.90;99.90;;;;;;5067256;28;20742;-83
2023/10/01 05:30:42;;;;;;;10.80;10.50;;;8.90;99.90;;;;;;5067519;28;20254;-83
2023/10/01 05:33:12;;;;;;;10.60;10.30;;;8.80;99.90;;;;;;5067123;28;20226;-83
2023/10/01 05:35:43;;;;;;;10.60;10.30;;;8.80;99.90;;;;;;5067094;28;20227;-83
2023/10/01 05:38:14;;;;;;;10.70;10.40;;;8.80;99.90;;;;;;5068476;28;20234;-82
2023/10/01 05:40:44;;;;;;;10.90;10.60;;;8.70;99.90;;;;;;5072993;28;20258;-83
2023/10/01 05:43:14;;;;;;;10.77;10.47;;;8.80;99.90;;;;;;5071366;28;20246;-83
2023/10/01 05:45:44;;;;;;;10.90;10.60;;;8.80;99.90;;;;;;5070936;28;20222;-83
2023/10/01 05:48:18;;;;;;;10.47;10.17;;;8.80;99.90;;;;;;5068748;28;20230;-83
2023/10/01 05:50:46;;;;;;;10.60;10.30;;;8.90;99.90;;;;;;5067701;28;20226;-83
2023/10/01 05:53:14;;;;;;;10.40;10.10;;;8.90;99.90;;;;;;5067393;28;20269;-83
2023/10/01 05:55:44;;;;;;;10.37;10.07;;;8.90;99.90;;;;;;5067372;28;20235;-83
2023/10/01 05:58:14;;;;;;;10.20;9.90;;;8.90;99.90;;;;;;5067275;28;20243;-83
2023/10/01 06:00:46;;;;;;;10.40;10.10;;;8.90;99.90;;;;;;5069320;28;20215;-82
2023/10/01 06:03:16;;;;;;;10.17;9.87;;;9.00;99.90;;;;;;5073392;28;20246;-82
2023/10/01 06:05:50;;;;;;;10.10;9.80;;;9.00;99.90;;;;;;5071251;28;20299;-82
2023/10/01 06:08:24;;;;;;;10.10;9.80;;;9.10;99.90;;;;;;5073496;28;20237;-82
2023/10/01 06:10:59;;;;;;;10.17;9.87;;;9.10;99.90;;;;;;5072621;28;20262;-82
2023/10/01 06:13:29;;;;;;;9.93;9.63;;;9.20;99.90;;;;;;5067632;28;20328;-82
2023/10/01 06:16:11;;;;;;;9.80;9.50;;;9.20;99.90;;;;;;5068955;28;20298;-83
2023/10/01 06:18:42;;;;;;;9.70;9.40;;;9.20;99.90;;;;;;5072540;28;20260;-82
2023/10/01 06:21:11;;;;;;;9.90;9.60;;;9.20;99.90;;;;;;5069101;28;20223;-83
2023/10/01 06:23:49;;;;;;;10.10;9.80;;;9.30;99.90;;;;;;5069457;28;20282;-83
2023/10/01 06:26:22;;;;;;;9.90;9.60;;;9.40;99.90;;;;;;5069611;28;20241;-83
2023/10/01 06:28:51;;;;;;;9.97;9.67;;;9.40;99.90;;;;;;5075269;28;20265;-83
2023/10/01 06:31:20;;;;;;;9.80;9.50;;;9.50;99.90;;;;;;5067264;28;20241;-83
2023/10/01 06:33:53;;;;;;;9.77;9.47;;;9.50;99.90;;;;;;5067829;28;20258;-83
2023/10/01 06:36:23;;;;;;;9.80;9.50;;;9.60;99.90;;;;;;5068288;28;20234;-82
2023/10/01 06:38:53;;;;;;;9.70;9.40;;;9.70;99.90;;;;;;5068174;28;20235;-83
2023/10/01 06:41:28;;;;;;;10.00;9.70;;;9.80;99.90;;;;;;5068646;28;20306;-83
2023/10/01 06:43:56;;;;;;;9.90;9.60;;;9.80;99.90;;;;;;5070558;28;20210;-83
2023/10/01 06:46:27;;;;;;;9.70;9.40;;;9.90;99.90;;;;;;5078552;28;20298;-83
2023/10/01 06:48:58;;;;;;;9.80;9.50;;;9.90;99.90;;;;;;5078306;28;20268;-83
2023/10/01 06:51:26;;;;;;;9.73;9.43;;;10.00;99.90;;;;;;5077977;28;20251;-83
2023/10/01 06:53:58;;;;;;;10.03;9.73;;;10.10;99.90;;;;;;5075379;28;20227;-82
2023/10/01 06:56:29;;;;;;;9.70;9.40;;;10.20;99.90;;;;;;5075718;28;20234;-83
2023/10/01 06:59:17;;;;;;;9.73;9.43;;;10.30;99.90;;;;;;5072773;28;20245;-83
2023/10/01 07:01:49;;;;;;;9.50;9.20;;;10.40;99.90;;;;;;5072549;28;20334;-83
2023/10/01 07:04:23;;;;;;;9.50;9.20;;;10.60;99.90;;;;;;5071912;28;20229;-83
2023/10/01 07:06:51;;;;;;;9.53;9.23;;;10.70;99.90;;;;;;5071051;28;20234;-83
2023/10/01 07:09:27;;;;;;;9.53;9.23;;;10.80;99.90;;;;;;5071522;28;20231;-83
2023/10/01 07:11:57;;;;;;;9.30;9.00;;;10.90;99.90;;;;;;5068958;28;20227;-83
2023/10/01 07:14:43;;;;;;;9.33;9.03;;;11.10;99.90;;;;;;5068915;28;20322;-83
2023/10/01 07:17:14;;;;;;;9.23;8.93;;;11.20;99.90;;;;;;5068339;28;20234;-83
2023/10/01 07:19:43;;;;;;;9.03;8.73;;;11.30;99.90;;;;;;5066814;28;20265;-83
2023/10/01 07:22:11;;;;;;;9.17;8.87;;;11.40;99.90;;;;;;5065753;28;20265;-83
2023/10/01 07:24:40;;;;;;;9.40;9.10;;;11.60;99.90;;;;;;5066667;28;20230;-83
2023/10/01 07:27:11;;;;;;;9.37;9.07;;;11.70;99.90;;;;;;5067706;28;20227;-83
2023/10/01 07:29:41;;;;;;;9.70;9.40;;;11.90;99.90;;;;;;5075645;28;20241;-83
2023/10/01 07:32:12;;;;;;;9.83;9.53;;;12.00;99.90;;;;;;5078017;28;20266;-83
2023/10/01 07:34:40;;;;;;;9.70;9.40;;;12.10;99.90;;;;;;5072123;28;20235;-83
2023/10/01 07:37:09;;;;;;;9.80;9.50;;;12.30;99.90;;;;;;5070745;28;20236;-83
2023/10/01 07:39:40;;;;;;;9.80;9.50;;;12.40;99.90;;;;;;5067174;28;20239;-83
2023/10/01 07:42:10;;;;;;;9.87;9.57;;;12.60;99.90;;;;;;5065715;28;20245;-83
2023/10/01 07:44:38;;;;;;;10.07;9.77;;;12.70;99.90;;;;;;5065504;28;20325;-83
2023/10/01 07:47:06;;;;;;;10.20;9.90;;;12.90;99.90;;;;;;5066026;28;20235;-83
2023/10/01 07:49:50;;;;;;;10.03;9.73;;;13.00;99.90;;;;;;5065446;28;20239;-83
2023/10/01 07:52:19;;;;;;;10.20;9.90;;;13.20;99.90;;;;;;5065747;28;20522;-83
2023/10/01 07:54:48;;;;;;;10.20;9.90;;;13.30;99.90;;;;;;5066151;28;20239;-83
2023/10/01 07:57:17;;;;;;;10.30;10.00;;;13.50;99.90;;;;;;5065230;28;20239;-83
2023/10/01 07:59:46;;;;;;;10.03;9.73;;;13.60;99.90;;;;;;5066109;28;20243;-83
2023/10/01 08:02:21;;;;;;;10.20;9.90;;;13.70;99.90;;;;;;5065830;28;20236;-83
2023/10/01 08:04:58;;;;;;;9.73;9.43;;;13.80;99.90;;;;;;5065533;28;20221;-83
2023/10/01 08:07:39;;;;;;;9.83;9.53;;;13.90;99.90;;;;;;5066121;28;20290;-83
2023/10/01 08:10:16;;;;;;;9.70;9.40;;;14.10;99.90;;;;;;5073720;28;20294;-83
2023/10/01 08:15:31;;;;;;;9.57;9.27;;;14.40;99.90;;;;;;5055776;28;20257;-83
2023/10/01 08:18:19;;;;;;;9.63;9.33;;;14.60;99.90;;;;;;5068599;28;20239;-83
2023/10/01 08:20:58;;;;;;;9.80;9.50;;;14.70;99.90;;;;;;5066767;28;20238;-83
2023/10/01 08:23:28;;;;;;;9.88;9.57;;;14.90;99.90;;;;;;5073199;28;20235;-83
2023/10/01 08:25:55;;;;;;;9.70;9.40;;;15.10;99.90;;;;;;5074995;28;20235;-83
2023/10/01 08:28:28;;;;;;;9.70;9.40;;;15.20;99.90;;;;;;5067961;28;20329;-83
2023/10/01 08:31:20;;;;;;;9.68;9.38;;;15.40;99.90;;;;;;5066487;28;20230;-82
2023/10/01 08:33:51;;;;;;;9.60;9.30;;;15.50;99.90;;;;;;5066231;28;20312;-83
2023/10/01 08:36:24;;;;;;;9.50;9.20;;;15.60;99.90;;;;;;5066846;28;20262;-83
2023/10/01 08:41:47;;;;;;;9.80;9.50;;;16.00;99.90;;;;;;5068213;28;20223;-83
2023/10/01 08:44:19;;;;;;;9.77;9.48;;;16.20;99.90;;;;;;5069001;28;20257;-83
2023/10/01 08:46:47;;;;;;;9.80;9.50;;;16.40;99.90;;;;;;5068905;28;20219;-83
2023/10/01 08:49:23;;;;;;;9.68;9.38;;;16.50;99.90;;;;;;5068654;28;20257;-83
2023/10/01 08:51:54;;;;;;;9.45;9.15;;;16.80;99.90;;;;;;5069507;28;20234;-83
2023/10/01 08:54:25;;;;;;;9.32;9.02;;;17.00;99.90;;;;;;5069698;28;20227;-83
2023/10/01 08:56:53;;;;;;;9.48;9.18;;;17.10;99.90;;;;;;5069104;28;20237;-83
2023/10/01 08:59:27;;;;;;;9.57;9.27;;;17.20;99.90;;;;;;5073526;28;20254;-83
2023/10/01 09:01:55;;;;;;;9.55;9.25;;;17.50;99.90;;;;;;5073222;28;20230;-83
2023/10/01 09:04:45;;;;;;;9.20;8.90;;;17.70;99.90;;;;;;5071473;28;20234;-83
2023/10/01 09:07:18;;;;;;;9.60;9.30;;;18.00;99.90;;;;;;5071020;28;20233;-83
2023/10/01 09:10:06;;;;;;;9.45;9.15;;;18.40;99.90;;;;;;5069172;28;20231;-82
2023/10/01 09:12:35;;;;;;;9.73;9.43;;;18.60;99.90;;;;;;5070506;28;20235;-83
2023/10/01 09:15:05;;;;;;;9.63;9.32;;;18.80;99.90;;;;;;5069096;28;20290;-83
2023/10/01 09:17:56;;;;;;;9.65;9.35;;;19.10;99.90;;;;;;5075293;28;20222;-82
2023/10/01 09:20:39;;;;;;;9.70;9.40;;;19.30;99.90;;;;;;5076559;28;20330;-83
2023/10/01 09:23:07;;;;;;;9.82;9.52;;;19.60;99.90;;;;;;5064843;28;20241;-83
2023/10/01 09:25:39;;;;;;;9.68;9.38;;;19.80;99.90;;;;;;5064242;28;20282;-83
2023/10/01 09:28:29;;;;;;;9.45;9.15;;;19.90;99.90;;;;;;5064919;28;20265;-83
2023/10/01 09:31:19;;;;;;;9.50;9.20;;;19.90;99.90;;;;;;5064911;28;20242;-83
2023/10/01 09:33:48;;;;;;;9.55;9.25;;;19.90;99.90;;;;;;5064363;28;20241;-82
2023/10/01 09:36:35;;;;;;;9.50;9.20;;;20.20;99.90;;;;;;5065891;28;20223;-83
2023/10/01 09:39:04;;;;;;;9.60;9.30;;;20.50;99.90;;;;;;5066026;28;20238;-84
2023/10/01 09:41:34;;;;;;;9.70;9.40;;;20.70;99.90;;;;;;5066367;28;20254;-84
2023/10/01 09:44:03;;;;;;;9.63;9.32;;;20.90;99.90;;;;;;5065754;28;20298;-83
2023/10/01 09:46:34;;;;;;;9.80;9.50;;;21.20;99.90;;;;;;5066907;28;20277;-85
2023/10/01 09:49:02;;;;;;;9.70;9.40;;;21.40;99.90;;;;;;5066941;28;20226;-83
2023/10/01 09:51:34;;;;;;;9.57;9.27;;;21.70;99.90;;;;;;5070742;28;20234;-83
2023/10/01 09:54:04;;;;;;;9.98;9.68;;;21.70;99.90;;;;;;5074043;28;20235;-82
2023/10/01 09:56:46;;;;;;;10.10;9.80;;;21.90;99.90;;;;;;5070136;28;20333;-83
2023/10/01 09:59:15;;;;;;;9.85;9.55;;;22.10;99.90;;;;;;5067760;28;20231;-82
2023/10/01 10:01:45;;;;;;;9.70;9.40;;;22.30;99.90;;;;;;5067729;28;20241;-82
2023/10/01 10:04:19;;;;;;;9.48;9.18;;;22.30;99.90;;;;;;5066709;28;20246;-81
2023/10/01 10:06:59;;;;;;;9.75;9.45;;;22.40;99.90;;;;;;5066397;28;20234;-83
2023/10/01 10:09:30;;;;;;;9.90;9.60;;;22.70;99.90;;;;;;5066551;28;20245;-83
2023/10/01 10:12:01;;;;;;;9.50;9.20;;;23.00;99.90;;;;;;5066986;28;20231;-83
2023/10/01 10:14:56;;;;;;;9.68;9.38;;;23.30;99.90;;;;;;5068688;28;20231;-83
2023/10/01 10:17:25;;;;;;;10.00;9.70;;;23.60;99.90;;;;;;5067728;28;20292;-82
2023/10/01 10:20:25;;;;;;;9.82;9.52;;;23.90;99.90;;;;;;5066620;28;20239;-82
2023/10/01 10:23:27;;;;;;;9.80;9.50;;;24.00;99.90;;;;;;5066287;28;20234;-83
2023/10/01 10:26:13;;;;;;;9.90;9.60;;;24.00;99.90;;;;;;5035194;28;20329;-83
2023/10/01 10:28:57;;;;;;;9.80;9.50;;;23.90;99.90;;;;;;5068021;28;20235;-83
2023/10/01 10:31:35;;;;;;;9.95;9.65;;;24.10;99.90;;;;;;5066324;28;20313;-83
2023/10/01 10:34:21;;;;;;;10.05;9.75;;;24.60;99.90;;;;;;5067483;28;20292;-82
2023/10/01 10:36:53;;;;;;;10.00;9.70;;;24.90;99.90;;;;;;5067342;28;20249;-83
2023/10/01 10:40:22;;;;;;;9.85;9.55;;;25.00;99.90;;;;;;5067132;28;20241;-83
2023/10/01 10:43:18;;;;;;;9.90;9.60;;;25.20;99.90;;;;;;5069386;28;20215;-84
2023/10/01 10:46:06;;;;;;;9.82;9.52;;;25.30;99.90;;;;;;5067224;28;20236;-83
2023/10/01 10:48:59;;;;;;;9.65;9.35;;;25.20;99.90;;;;;;5066066;28;20235;-82
2023/10/01 10:51:48;;;;;;;9.77;9.48;;;25.20;99.90;;;;;;5067197;28;20230;-83
2023/10/01 10:54:31;;;;;;;9.60;9.30;;;25.50;99.90;;;;;;5066497;28;20231;-82
2023/10/01 10:56:59;;;;;;;9.63;9.32;;;25.50;99.90;;;;;;5069499;28;20250;-83
2023/10/01 10:59:30;;;;;;;9.60;9.30;;;25.50;99.90;;;;;;5066806;28;20249;-83
2023/10/01 11:01:59;;;;;;;9.60;9.30;;;25.80;99.90;;;;;;5066984;28;20259;-83
2023/10/01 11:04:32;;;;;;;9.50;9.20;;;26.00;99.90;;;;;;5066580;28;20262;-84
2023/10/01 11:07:04;;;;;;;9.70;9.40;;;26.20;99.90;;;;;;5067790;28;20289;-83
2023/10/01 11:09:33;;;;;;;9.73;9.43;;;26.50;99.90;;;;;;5067944;28;20242;-83
2023/10/01 11:12:19;;;;;;;9.63;9.32;;;26.70;99.90;;;;;;5066959;28;20257;-84
2023/10/01 11:15:19;;;;;;;9.80;9.50;;;26.70;99.90;;;;;;5067000;28;20589;-84
2023/10/01 11:17:47;;;;;;;9.48;9.18;;;26.70;99.90;;;;;;5067181;28;20231;-83
2023/10/01 11:20:22;;;;;;;9.60;9.30;;;26.70;99.90;;;;;;5067946;28;20237;-83
2023/10/01 11:22:54;;;;;;;9.60;9.30;;;26.70;99.90;;;;;;5066409;28;20238;-84
2023/10/01 11:25:22;;;;;;;9.55;9.25;;;26.60;99.90;;;;;;5071941;28;20275;-83
2023/10/01 11:27:53;;;;;;;9.70;9.40;;;26.70;99.90;;;;;;5068827;28;20239;-83
2023/10/01 11:30:21;;;;;;;9.70;9.40;;;27.00;99.90;;;;;;5067910;28;20294;-83
2023/10/01 11:33:12;;;;;;;9.50;9.20;;;26.80;99.90;;;;;;5066984;28;20223;-83
2023/10/01 11:35:41;;;;;;;9.40;9.10;;;26.80;99.90;;;;;;5069271;28;20238;-83
2023/10/01 11:38:12;;;;;;;9.40;9.10;;;26.70;99.90;;;;;;5068423;28;20262;-83
2023/10/01 11:43:34;;;;;;;9.45;9.15;;;26.70;99.90;;;;;;5068730;28;20238;-83
2023/10/01 11:46:32;;;;;;;9.63;9.32;;;27.00;99.90;;;;;;5069305;28;20253;-83
2023/10/01 11:49:16;;;;;;;9.55;9.25;;;27.20;99.90;;;;;;5068081;28;20241;-84
2023/10/01 11:51:48;;;;;;;9.75;9.45;;;27.40;99.90;;;;;;5067106;28;20230;-82
2023/10/01 11:54:17;;;;;;;9.60;9.30;;;27.70;99.90;;;;;;5067188;28;20237;-83
2023/10/01 11:56:46;;;;;;;9.70;9.40;;;28.00;99.90;;;;;;5067328;28;20279;-83
2023/10/01 11:59:19;;;;;;;9.57;9.27;;;28.20;99.90;;;;;;5067006;28;20238;-83
2023/10/01 12:01:51;;;;;;;9.70;9.40;;;28.30;99.90;;;;;;5067927;28;20262;-83
2023/10/01 12:04:43;;;;;;;9.40;9.10;;;28.50;99.90;;;;;;5066864;28;20250;-84
2023/10/01 12:07:17;;;;;;;9.57;9.27;;;28.70;99.90;;;;;;5066404;28;20231;-84
2023/10/01 12:09:49;;;;;;;9.40;9.10;;;28.80;99.90;;;;;;5065659;28;20325;-84
2023/10/01 12:12:18;;;;;;;9.60;9.30;;;29.00;99.90;;;;;;5067729;28;20238;-83
2023/10/01 12:14:55;;;;;;;9.60;9.30;;;29.40;99.90;;;;;;5069958;28;20226;-84
2023/10/01 12:17:27;;;;;;;9.60;9.30;;;29.60;99.90;;;;;;5075241;28;20210;-83
2023/10/01 12:20:01;;;;;;;9.60;9.30;;;29.90;99.90;;;;;;5070739;28;20265;-83
2023/10/01 12:22:30;;;;;;;9.70;9.40;;;29.90;99.90;;;;;;5069222;28;20234;-83
2023/10/01 12:24:59;;;;;;;9.57;9.27;;;30.10;99.90;;;;;;5068894;28;20234;-83
2023/10/01 12:27:45;;;;;;;9.63;9.32;;;30.10;99.90;;;;;;5069665;28;20233;-84
2023/10/01 12:33:08;;;;;;;9.40;9.10;;;30.10;99.90;;;;;;5147667;27;20537;-83
2023/10/01 12:35:36;;;;;;;9.00;8.80;;;29.70;99.90;;;;;;5127888;27;20279;-84
2023/10/01 12:40:54;;;;;;;9.35;9.05;;;29.70;99.90;;;;;;5126644;27;20213;-83
2023/10/01 12:43:37;;;;;;;9.10;8.90;;;29.80;99.90;;;;;;5128052;27;20350;-83
2023/10/01 12:46:09;;;;;;;9.18;8.93;;;30.00;99.90;;;;;;5126477;27;20229;-83
2023/10/01 12:48:39;;;;;;;9.00;8.80;;;30.10;99.90;;;;;;5124300;27;20331;-84
2023/10/01 12:51:08;;;;;;;9.10;8.90;;;29.80;99.90;;;;;;5124690;27;20246;-82
2023/10/01 12:53:47;;;;;;;9.07;8.85;;;29.70;99.90;;;;;;5124563;27;20244;-83
2023/10/01 12:56:16;;;;;;;9.10;8.90;;;29.80;99.90;;;;;;5126412;27;20228;-84
2023/10/01 12:58:53;;;;;;;9.40;9.10;;;29.50;99.90;;;;;;5124940;27;20256;-84
2023/10/01 13:01:31;;;;;;;9.48;9.18;;;29.60;99.90;;;;;;5128110;27;20228;-81
2023/10/01 13:04:16;;;;;;;9.50;9.20;;;29.70;99.90;;;;;;5125044;28;20240;-83
2023/10/01 13:06:46;;;;;;;9.65;9.35;;;29.80;99.90;;;;;;5124494;28;20236;-84
2023/10/01 13:09:35;;;;;;;9.70;9.40;;;30.00;99.90;;;;;;5123803;27;20229;-83
2023/10/01 13:12:06;;;;;;;9.68;9.38;;;30.10;99.90;;;;;;5122382;28;20328;-83
2023/10/01 13:14:33;;;;;;;9.70;9.40;;;29.90;99.90;;;;;;5122845;27;20225;-83
2023/10/01 13:17:01;;;;;;;9.60;9.30;;;29.90;99.90;;;;;;5121882;27;20235;-83
2023/10/01 13:19:33;;;;;;;9.50;9.20;;;30.00;99.90;;;;;;5122517;27;20268;-82
2023/10/01 13:22:04;;;;;;;9.35;9.05;;;30.00;99.90;;;;;;5122377;27;20220;-83
2023/10/01 13:24:32;;;;;;;9.50;9.20;;;30.00;99.90;;;;;;5122805;28;20240;-84
2023/10/01 13:27:10;;;;;;;9.45;9.15;;;29.80;99.90;;;;;;5123337;27;20248;-82
2023/10/01 13:29:38;;;;;;;9.70;9.40;;;30.00;99.90;;;;;;5121773;27;20225;-83